createdAt,value
2022-07-30T00:02:18.034Z,5.60
2022-07-30T00:07:20.746Z,6.00
2022-07-30T00:12:23.452Z,6.20
2022-07-30T00:17:27.740Z,6.00
2022-07-30T00:22:31.705Z,7.00
2022-07-30T00:27:35.286Z,5.00
2022-07-30T00:32:39.384Z,5.00
2022-07-30T00:37:42.155Z,5.20
2022-07-30T00:42:45.925Z,6.40
2022-07-30T00:47:50.052Z,5.00
2022-07-30T00:52:52.791Z,6.80
2022-07-30T00:57:55.571Z,6.00
2022-07-30T01:02:59.851Z,5.40
2022-07-30T01:08:02.706Z,5.00
2022-07-30T01:13:05.377Z,6.00
2022-07-30T01:19:03.427Z,6.60
2022-07-30T01:24:13.122Z,7.00
2022-07-30T01:29:17.321Z,7.00
2022-07-30T01:34:21.113Z,5.80
2022-07-30T01:39:23.844Z,7.00
2022-07-30T01:44:28.558Z,6.00
2022-07-30T01:49:31.418Z,7.00
2022-07-30T01:54:34.812Z,8.00
2022-07-30T01:59:39.033Z,7.00
2022-07-30T02:04:41.784Z,7.00
2022-07-30T02:09:52.254Z,7.20
2022-07-30T02:15:03.439Z,7.80
2022-07-30T02:20:09.921Z,7.20
2022-07-30T02:25:15.092Z,7.20
2022-07-30T02:30:19.148Z,7.00
2022-07-30T02:35:23.741Z,7.00
2022-07-30T02:40:26.598Z,8.20
2022-07-30T02:45:30.806Z,8.40
2022-07-30T02:50:33.926Z,7.00
2022-07-30T02:55:37.042Z,8.40
2022-07-30T03:00:41.418Z,8.00
2022-07-30T03:05:44.824Z,8.00
2022-07-30T03:10:47.606Z,7.80
2022-07-30T03:15:52.151Z,7.00
2022-07-30T03:20:57.786Z,7.80
2022-07-30T03:26:01.702Z,7.20
2022-07-30T03:31:06.837Z,8.20
2022-07-30T03:36:10.017Z,8.20
2022-07-30T03:41:13.048Z,8.00
2022-07-30T03:46:19.003Z,8.00
2022-07-30T03:51:25.099Z,9.00
2022-07-30T03:56:29.676Z,8.80
2022-07-30T04:01:40.423Z,7.00
2022-07-30T04:07:01.155Z,8.00
2022-07-30T04:12:05.474Z,8.00
2022-07-30T04:17:13.229Z,8.20
2022-07-30T04:22:18.284Z,9.00
2022-07-30T04:27:21.862Z,9.00
2022-07-30T04:32:26.340Z,8.00
2022-07-30T04:37:58.074Z,8.00
2022-07-30T04:43:01.575Z,10.20
2022-07-30T04:48:06.599Z,9.60
2022-07-30T04:53:27.709Z,9.00
2022-07-30T04:58:34.637Z,10.60
2022-07-30T05:03:39.844Z,8.40
2022-07-30T05:08:42.802Z,8.60
2022-07-30T05:13:48.772Z,10.80
2022-07-30T05:18:57.171Z,8.00
2022-07-30T05:24:00.096Z,8.60
2022-07-30T05:29:19.903Z,9.00
2022-07-30T05:34:36.922Z,8.00
2022-07-30T05:39:40.962Z,10.60
2022-07-30T05:45:27.973Z,9.60
2022-07-30T05:50:32.262Z,9.80
2022-07-30T05:55:35.574Z,10.20
2022-07-30T06:00:57.753Z,10.00
2022-07-30T06:06:06.297Z,11.40
2022-07-30T06:11:09.833Z,9.20
2022-07-30T06:16:15.478Z,8.20
2022-07-30T06:21:19.881Z,8.60
2022-07-30T06:26:41.895Z,8.00
2022-07-30T06:31:46.215Z,8.20
2022-07-30T06:36:50.441Z,10.00
2022-07-30T06:41:57.006Z,9.80
2022-07-30T06:47:07.816Z,8.00
2022-07-30T06:52:18.352Z,9.40
2022-07-30T06:57:25.226Z,8.00
2022-07-30T07:02:28.740Z,8.80
2022-07-30T07:07:58.172Z,7.20
2022-07-30T07:13:03.698Z,12.00
2022-07-30T07:18:12.565Z,11.00
2022-07-30T07:23:19.919Z,10.60
2022-07-30T07:28:33.214Z,11.00
2022-07-30T07:33:36.977Z,13.40
2022-07-30T07:38:41.187Z,17.00
2022-07-30T07:43:44.161Z,11.60
2022-07-30T07:48:51.894Z,11.00
2022-07-30T07:54:20.545Z,13.40
2022-07-30T07:59:36.010Z,13.20
2022-07-30T08:04:46.651Z,11.20
2022-07-30T08:09:50.869Z,15.50
2022-07-30T08:15:03.109Z,12.00
2022-07-30T08:20:25.000Z,11.00
2022-07-30T08:25:29.595Z,11.60
2022-07-30T08:30:32.551Z,12.00
2022-07-30T08:35:36.285Z,11.00
2022-07-30T08:40:47.804Z,10.00
2022-07-30T08:45:51.944Z,10.20
2022-07-30T08:51:08.054Z,11.00
2022-07-30T08:56:12.683Z,11.20
2022-07-30T09:01:15.937Z,9.80
2022-07-30T09:06:18.720Z,11.80
2022-07-30T09:11:22.847Z,15.00
2022-07-30T09:16:27.396Z,10.60
2022-07-30T09:21:32.848Z,10.80
2022-07-30T09:27:01.384Z,13.00
2022-07-30T09:32:22.994Z,12.00
2022-07-30T09:37:44.204Z,12.40
2022-07-30T09:43:24.475Z,13.00
2022-07-30T09:48:33.364Z,13.25
2022-07-30T09:53:37.179Z,13.00
2022-07-30T09:58:45.624Z,12.75
2022-07-30T10:03:50.237Z,13.75
2022-07-30T10:09:13.852Z,14.40
2022-07-30T10:14:24.009Z,15.25
2022-07-30T10:19:39.943Z,18.75
2022-07-30T10:25:03.424Z,19.50
2022-07-30T10:30:29.456Z,18.75
2022-07-30T10:35:37.951Z,19.00
2022-07-30T10:40:43.540Z,20.75
2022-07-30T10:45:51.507Z,20.75
2022-07-30T10:50:55.237Z,22.25
2022-07-30T10:56:11.897Z,20.00
2022-07-30T11:01:18.546Z,21.00
2022-07-30T11:06:28.443Z,21.75
2022-07-30T11:12:01.584Z,22.00
2022-07-30T11:17:08.739Z,21.75
2022-07-30T11:22:25.619Z,20.75
2022-07-30T11:27:38.992Z,19.25
2022-07-30T11:32:45.925Z,20.75
2022-07-30T11:38:02.201Z,20.75
2022-07-30T11:43:34.999Z,21.75
2022-07-30T11:48:42.825Z,23.25
2022-07-30T11:53:46.089Z,22.50
2022-07-30T11:58:48.963Z,22.00
2022-07-30T12:03:53.107Z,21.50
2022-07-30T12:08:58.674Z,21.50
2022-07-30T12:14:02.184Z,20.75
2022-07-30T12:19:09.612Z,19.00
2022-07-30T12:24:12.542Z,18.50
2022-07-30T12:29:15.548Z,18.00
2022-07-30T12:34:23.241Z,18.50
2022-07-30T12:39:27.953Z,19.25
2022-07-30T12:44:40.609Z,17.75
2022-07-30T12:49:49.452Z,19.50
2022-07-30T12:55:06.563Z,18.50
2022-07-30T13:00:10.563Z,19.50
2022-07-30T13:05:14.672Z,19.50
2022-07-30T13:10:18.818Z,18.50
2022-07-30T13:15:22.065Z,16.20
2022-07-30T13:20:26.446Z,17.50
2022-07-30T13:25:38.819Z,16.00
2022-07-30T13:30:43.424Z,17.00
2022-07-30T13:35:47.542Z,16.50
2022-07-30T13:40:50.443Z,16.00
2022-07-30T13:45:53.340Z,17.00
2022-07-30T13:50:57.547Z,15.75
2022-07-30T13:56:00.390Z,16.00
2022-07-30T14:01:03.229Z,16.00
2022-07-30T14:06:10.828Z,17.00
2022-07-30T14:11:14.170Z,17.00
2022-07-30T14:16:35.699Z,17.00
2022-07-30T14:21:41.910Z,20.00
2022-07-30T14:26:44.671Z,18.75
2022-07-30T14:31:47.437Z,18.75
2022-07-30T14:36:51.715Z,19.50
2022-07-30T14:41:55.914Z,20.75
2022-07-30T14:46:58.912Z,20.50
2022-07-30T14:52:03.043Z,20.00
2022-07-30T14:57:08.536Z,20.00
2022-07-30T15:02:11.640Z,19.25
2022-07-30T15:07:15.896Z,20.00
2022-07-30T15:12:26.570Z,19.25
2022-07-30T15:17:29.860Z,19.50
2022-07-30T15:22:34.060Z,19.25
2022-07-30T15:27:37.013Z,21.50
2022-07-30T15:32:39.986Z,19.50
2022-07-30T15:37:44.095Z,17.50
2022-07-30T15:42:46.841Z,18.75
2022-07-30T15:47:49.725Z,17.25
2022-07-30T15:52:54.133Z,19.50
2022-07-30T15:57:57.518Z,19.75
2022-07-30T16:03:00.315Z,18.50
2022-07-30T16:08:04.495Z,17.00
2022-07-30T16:13:07.393Z,17.75
2022-07-30T16:18:10.383Z,17.00
2022-07-30T16:23:18.238Z,20.75
2022-07-30T16:28:23.990Z,17.75
2022-07-30T16:33:26.948Z,18.00
2022-07-30T16:38:31.117Z,15.80
2022-07-30T16:43:34.112Z,13.60
2022-07-30T16:48:37.606Z,15.75
2022-07-30T16:53:41.723Z,15.60
2022-07-30T16:58:44.730Z,14.20
2022-07-30T17:03:47.487Z,14.00
2022-07-30T17:08:51.642Z,14.75
2022-07-30T17:13:54.482Z,15.80
2022-07-30T17:18:57.339Z,12.00
2022-07-30T17:24:01.679Z,11.00
2022-07-30T17:29:04.490Z,11.80
2022-07-30T17:34:08.884Z,14.00
2022-07-30T17:39:18.163Z,14.00
2022-07-30T17:44:35.951Z,12.80
2022-07-30T17:49:38.878Z,13.75
2022-07-30T17:54:43.339Z,10.60
2022-07-30T17:59:46.168Z,11.60
2022-07-30T18:04:52.166Z,12.00
2022-07-30T18:10:00.088Z,12.00
2022-07-30T18:15:02.926Z,12.00
2022-07-30T18:20:06.970Z,12.00
2022-07-30T18:25:18.857Z,11.80
2022-07-30T18:30:22.268Z,11.60
2022-07-30T18:35:25.122Z,10.80
2022-07-30T18:40:29.486Z,11.60
2022-07-30T18:45:36.865Z,11.00
2022-07-30T18:50:40.242Z,9.40
2022-07-30T18:55:44.453Z,11.00
2022-07-30T19:00:47.323Z,10.60
2022-07-30T19:05:50.213Z,10.60
2022-07-30T19:10:54.403Z,10.60
2022-07-30T19:15:57.262Z,11.20
2022-07-30T19:21:00.261Z,9.60
2022-07-30T19:26:05.897Z,10.80
2022-07-30T19:31:08.746Z,10.60
2022-07-30T19:36:12.830Z,7.00
2022-07-30T19:41:16.960Z,10.00
2022-07-30T19:46:21.693Z,9.40
2022-07-30T19:52:10.707Z,8.20
2022-07-30T19:56:51.171Z,10.00
2022-07-30T20:01:55.702Z,10.00
2022-07-30T20:07:00.047Z,7.80
2022-07-30T20:12:04.638Z,9.80
2022-07-30T20:17:08.081Z,8.80
2022-07-30T20:22:11.218Z,8.20
2022-07-30T20:27:35.995Z,8.40
2022-07-30T20:38:05.018Z,8.60
2022-07-30T20:43:11.706Z,8.00
2022-07-30T20:48:17.315Z,9.00
2022-07-30T20:53:33.711Z,8.20
2022-07-30T20:58:41.048Z,8.40
2022-07-30T21:03:44.094Z,9.80
2022-07-30T21:08:51.071Z,8.40
2022-07-30T21:13:56.053Z,8.20
2022-07-30T21:18:58.847Z,8.00
2022-07-30T21:24:01.652Z,10.00
2022-07-30T21:29:08.208Z,10.40
2022-07-30T21:34:11.095Z,9.80
2022-07-30T21:39:14.535Z,9.80
2022-07-30T21:44:18.649Z,8.20
2022-07-30T21:49:21.522Z,7.80
2022-07-30T21:59:48.382Z,7.00
2022-07-30T22:04:51.146Z,8.00
2022-07-30T22:09:53.898Z,7.00
2022-07-30T22:14:58.025Z,8.40
2022-07-30T22:20:00.867Z,7.00
2022-07-30T22:25:09.431Z,8.00
2022-07-30T22:30:14.516Z,7.00
2022-07-30T22:35:17.258Z,7.60
2022-07-30T22:40:24.703Z,7.00
2022-07-30T22:45:47.422Z,9.00
2022-07-30T22:50:52.101Z,7.00
2022-07-30T22:55:55.537Z,6.20
2022-07-30T23:01:00.228Z,5.80
2022-07-30T23:06:03.087Z,7.00
2022-07-30T23:11:06.071Z,7.00
2022-07-30T23:12:18.142Z,8.60
2022-07-30T23:12:32.859Z,8.40
2022-07-30T23:16:10.571Z,6.00
2022-07-30T23:21:13.364Z,7.00
2022-07-30T23:26:16.206Z,6.80
2022-07-30T23:31:22.970Z,7.40
2022-07-30T23:36:29.199Z,6.00
2022-07-30T23:41:31.916Z,5.40
2022-07-30T23:46:37.103Z,6.00
2022-07-30T23:51:39.935Z,7.00
2022-07-30T23:56:42.801Z,5.00
